Time;durP1;ratioP1;P1;durP2;ratioP2;P2;SDS_P1;SDS_P2;PMS_P1;PMS_P2;Temp;Humidity;BMP_temperature;BMP_pressure;BME280_temperature;BME280_humidity;BME280_pressure;Samples;Min_cycle;Max_cycle;Signal;HPM_P1;HPM_P2
2022/03/06 00:02:08;;;;;;;;;;;0.20;81.30;;;;;;5170974;28;19926;-73
2022/03/06 00:04:41;;;;;;;;;;;0.20;80.60;;;;;;5152272;28;19936;-74
2022/03/06 00:07:13;;;;;;;;;;;0.20;80.60;;;;;;5152510;28;19928;-75
2022/03/06 00:09:45;;;;;;;;;;;0.20;80.80;;;;;;5171316;28;19925;-73
2022/03/06 00:12:17;;;;;;;;;;;-0.70;80.20;;;;;;5154403;28;19961;-73
2022/03/06 00:14:49;;;;;;;;;;;0.00;80.90;;;;;;5171034;28;19929;-73
2022/03/06 00:17:22;;;;;;;;;;;-0.10;81.40;;;;;;5143666;28;19921;-74
2022/03/06 00:19:54;;;;;;;;;;;0.10;80.90;;;;;;5171019;28;19925;-74
2022/03/06 00:22:26;;;;;;;;;;;0.00;81.50;;;;;;5152763;28;19936;-74
2022/03/06 00:25:00;;;;;;;;;;;0.00;81.60;;;;;;5167408;28;20780;-74
2022/03/06 00:27:32;;;;;;;;;;;0.10;81.50;;;;;;5171682;28;20429;-73
2022/03/06 00:30:05;;;;;;;;;;;-0.20;82.20;;;;;;5155232;28;19921;-73
2022/03/06 00:32:38;;;;;;;;;;;-0.10;82.20;;;;;;5169997;28;19929;-74
2022/03/06 00:35:10;;;;;;;;;;;1.00;82.70;;;;;;5138434;28;25988;-74
2022/03/06 00:37:42;;;;;;;;;;;-0.20;82.00;;;;;;5176624;28;19968;-73
2022/03/06 00:40:15;;;;;;;;;;;-0.20;82.40;;;;;;5190218;23;19905;-35
2022/03/06 00:42:47;;;;;;;;;;;-0.20;82.80;;;;;;5200712;28;19957;-36
2022/03/06 00:45:19;;;;;;;;;;;-0.20;83.00;;;;;;5192247;28;19929;-36
2022/03/06 00:47:51;;;;;;;;;;;-0.20;82.50;;;;;;5201058;28;19943;-36
2022/03/06 00:50:23;;;;;;;;;;;-0.20;83.00;;;;;;5201963;28;20427;-37
2022/03/06 00:52:57;;;;;;;;;;;-0.20;83.10;;;;;;5199773;28;19932;-36
2022/03/06 00:55:30;;;;;;;;;;;-0.20;82.90;;;;;;5210842;23;19927;-45
2022/03/06 00:58:06;;;;;;;;;;;0.10;83.60;;;;;;5200116;28;19943;-48
2022/03/06 01:00:39;;;;;;;;;;;-0.20;83.00;;;;;;5194946;28;20440;-41
2022/03/06 01:03:14;;;;;;;;;;;0.00;82.90;;;;;;5194428;28;19921;-42
2022/03/06 01:05:47;;;;;;;;;;;-0.20;83.20;;;;;;5195604;28;19939;-45
2022/03/06 01:08:19;;;;;;;;;;;-0.40;82.70;;;;;;5191805;28;20393;-41
2022/03/06 01:10:52;;;;;;;;;;;0.20;83.10;;;;;;5197490;28;19925;-44
2022/03/06 01:13:24;;;;;;;;;;;-0.60;83.10;;;;;;5196915;28;20403;-43
2022/03/06 01:15:56;;;;;;;;;;;-0.90;82.70;;;;;;5191665;28;19925;-46
2022/03/06 01:18:29;;;;;;;;;;;-0.50;83.60;;;;;;5189224;28;19924;-46
2022/03/06 01:21:01;;;;;;;;;;;-0.60;83.90;;;;;;5201183;28;19925;-45
2022/03/06 01:23:35;;;;;;;;;;;-0.60;84.10;;;;;;5195410;28;19932;-45
2022/03/06 01:26:07;;;;;;;;;;;-0.80;83.50;;;;;;5192676;28;19932;-43
2022/03/06 01:28:39;;;;;;;;;;;-0.60;84.40;;;;;;5186405;28;25816;-42
2022/03/06 01:31:12;;;;;;;;;;;-0.60;84.50;;;;;;5195792;28;19932;-44
2022/03/06 01:33:44;;;;;;;;;;;-0.60;84.20;;;;;;5197904;28;20412;-45
2022/03/06 01:36:16;;;;;;;;;;;-0.60;84.70;;;;;;5180580;28;19925;-40
2022/03/06 01:38:49;;;;;;;;;;;-0.70;84.70;;;;;;5197117;28;20129;-43
2022/03/06 01:41:21;;;;;;;;;;;-0.70;84.60;;;;;;5196501;28;19955;-43
2022/03/06 01:43:53;;;;;;;;;;;-0.50;84.70;;;;;;5179589;28;19928;-42
2022/03/06 01:46:26;;;;;;;;;;;-0.70;85.00;;;;;;5196706;28;20526;-41
2022/03/06 01:48:58;;;;;;;;;;;-0.80;84.20;;;;;;5195363;28;19925;-44
2022/03/06 01:51:30;;;;;;;;;;;-0.70;84.70;;;;;;5195972;28;20300;-43
2022/03/06 01:54:03;;;;;;;;;;;-0.10;85.30;;;;;;5196412;28;20405;-43
2022/03/06 01:56:35;;;;;;;;;;;-1.00;85.40;;;;;;5198367;28;20300;-44
2022/03/06 01:59:08;;;;;;;;;;;-0.90;85.00;;;;;;5193837;28;20288;-44
2022/03/06 02:01:41;;;;;;;;;;;-0.90;84.70;;;;;;5198721;28;19936;-42
2022/03/06 02:04:14;;;;;;;;;;;-0.90;84.70;;;;;;5192410;28;19934;-42
2022/03/06 02:06:46;;;;;;;;;;;-1.00;84.50;;;;;;5199206;28;19932;-42
2022/03/06 02:09:18;;;;;;;;;;;-1.20;84.70;;;;;;5197952;28;19921;-49
2022/03/06 02:14:41;;;;;;;;;;;-1.10;85.40;;;;;;5185551;28;20293;-45
2022/03/06 02:17:13;;;;;;;;;;;-0.50;85.80;;;;;;5196322;28;20349;-39
2022/03/06 02:19:52;;;;;;;;;;;-0.90;85.90;;;;;;5176927;28;20264;-43
2022/03/06 02:22:26;;;;;;;;;;;-1.00;85.80;;;;;;5183186;28;19928;-42
2022/03/06 02:24:59;;;;;;;;;;;-1.00;86.00;;;;;;5187648;28;19947;-43
2022/03/06 02:27:32;;;;;;;;;;;-1.10;86.00;;;;;;5180853;28;20404;-39
2022/03/06 02:30:08;;;;;;;;;;;-1.20;86.20;;;;;;5196442;28;20191;-54
2022/03/06 02:32:40;;;;;;;;;;;-1.20;85.90;;;;;;5199145;28;19945;-44
2022/03/06 02:35:13;;;;;;;;;;;-1.20;86.20;;;;;;5196593;28;19921;-44
2022/03/06 02:37:46;;;;;;;;;;;-1.20;86.40;;;;;;5191490;28;19925;-43
2022/03/06 02:40:20;;;;;;;;;;;-0.90;86.60;;;;;;5197857;28;19932;-42
2022/03/06 02:42:53;;;;;;;;;;;-1.30;86.40;;;;;;5194371;28;19921;-46
2022/03/06 02:45:26;;;;;;;;;;;-1.30;86.40;;;;;;5195760;28;19928;-46
2022/03/06 02:47:59;;;;;;;;;;;-1.30;86.50;;;;;;5195984;28;19928;-44
2022/03/06 02:50:32;;;;;;;;;;;-1.40;86.50;;;;;;5193030;28;19928;-42
2022/03/06 02:53:06;;;;;;;;;;;-0.60;87.40;;;;;;5202315;28;19975;-42
2022/03/06 02:55:38;;;;;;;;;;;-1.50;87.30;;;;;;5199158;28;19925;-46
2022/03/06 02:58:10;;;;;;;;;;;-1.40;86.80;;;;;;5198725;28;20372;-42
2022/03/06 03:00:43;;;;;;;;;;;-1.60;86.80;;;;;;5202046;28;19932;-42
2022/03/06 03:03:16;;;;;;;;;;;-1.20;87.20;;;;;;5198834;28;20509;-44
2022/03/06 03:05:48;;;;;;;;;;;-1.50;87.60;;;;;;5189795;28;21226;-38
2022/03/06 03:08:20;;;;;;;;;;;-1.50;87.70;;;;;;5193806;28;19925;-48
2022/03/06 03:10:53;;;;;;;;;;;-1.50;87.90;;;;;;5195544;28;19928;-45
2022/03/06 03:13:25;;;;;;;;;;;-2.30;87.30;;;;;;5173876;28;19932;-45
2022/03/06 03:15:58;;;;;;;;;;;-1.50;88.10;;;;;;5182869;28;19932;-44
2022/03/06 03:18:30;;;;;;;;;;;-1.60;88.00;;;;;;5197916;28;20924;-49
2022/03/06 03:21:02;;;;;;;;;;;-2.50;87.70;;;;;;5191444;28;19939;-41
2022/03/06 03:23:34;;;;;;;;;;;-1.40;88.60;;;;;;5200230;28;19932;-43
2022/03/06 03:26:07;;;;;;;;;;;-1.60;88.60;;;;;;5196101;28;19932;-41
2022/03/06 03:28:39;;;;;;;;;;;-1.40;88.90;;;;;;5195208;28;20532;-45
2022/03/06 03:31:11;;;;;;;;;;;-1.50;89.50;;;;;;5187453;28;19982;-47
2022/03/06 03:33:44;;;;;;;;;;;-1.60;89.70;;;;;;5190364;28;19924;-45
2022/03/06 03:36:16;;;;;;;;;;;-1.00;89.90;;;;;;5196738;28;20476;-43
2022/03/06 03:38:48;;;;;;;;;;;-1.90;90.00;;;;;;5180763;28;20539;-40
2022/03/06 03:41:22;;;;;;;;;;;-1.70;90.20;;;;;;5191490;28;19928;-55
2022/03/06 03:43:54;;;;;;;;;;;-1.70;90.10;;;;;;5199586;28;20176;-40
2022/03/06 03:46:27;;;;;;;;;;;-1.30;90.40;;;;;;5191376;28;19920;-44
2022/03/06 03:48:59;;;;;;;;;;;-1.30;90.20;;;;;;5199039;28;19925;-43
2022/03/06 03:51:31;;;;;;;;;;;-1.10;90.00;;;;;;5193404;28;19925;-45
2022/03/06 03:54:04;;;;;;;;;;;-1.60;90.10;;;;;;5197187;28;20365;-50
2022/03/06 03:56:36;;;;;;;;;;;-1.60;90.20;;;;;;5194067;28;19931;-50
2022/03/06 03:59:08;;;;;;;;;;;-1.70;90.60;;;;;;5174806;28;19925;-47
2022/03/06 04:01:41;;;;;;;;;;;-1.70;90.50;;;;;;5190423;28;19929;-40
2022/03/06 04:04:13;;;;;;;;;;;-1.50;90.70;;;;;;5196894;28;19921;-50
2022/03/06 04:06:46;;;;;;;;;;;-1.60;90.70;;;;;;5197663;28;19936;-39
2022/03/06 04:09:18;;;;;;;;;;;-1.80;90.80;;;;;;5190389;28;19935;-46
2022/03/06 04:11:50;;;;;;;;;;;-0.70;91.30;;;;;;5187464;28;19929;-41
2022/03/06 04:14:22;;;;;;;;;;;-1.30;91.50;;;;;;5195640;28;19928;-47
2022/03/06 04:16:55;;;;;;;;;;;-1.70;91.80;;;;;;5181432;28;19936;-43
2022/03/06 04:19:27;;;;;;;;;;;-2.10;91.50;;;;;;5190942;28;19936;-48
2022/03/06 04:21:59;;;;;;;;;;;0.00;92.10;;;;;;5200853;28;19925;-41
2022/03/06 04:24:31;;;;;;;;;;;-1.60;92.30;;;;;;5196734;28;19939;-42
2022/03/06 04:27:04;;;;;;;;;;;-1.30;92.70;;;;;;5196858;28;20250;-46
2022/03/06 04:29:36;;;;;;;;;;;-1.90;92.50;;;;;;5198924;28;20377;-49
2022/03/06 04:32:08;;;;;;;;;;;-1.60;92.70;;;;;;5189316;28;19932;-41
2022/03/06 04:34:40;;;;;;;;;;;-1.20;92.40;;;;;;5186315;28;21281;-41
2022/03/06 04:37:12;;;;;;;;;;;-1.30;92.70;;;;;;5198962;28;20391;-47
2022/03/06 04:39:45;;;;;;;;;;;-1.90;92.80;;;;;;5203555;28;19936;-39
2022/03/06 04:42:17;;;;;;;;;;;-0.60;92.60;;;;;;5196626;28;19928;-45
2022/03/06 04:44:49;;;;;;;;;;;-0.20;92.30;;;;;;5187421;28;19920;-48
2022/03/06 04:47:21;;;;;;;;;;;-1.60;92.00;;;;;;5205995;28;19931;-42
2022/03/06 04:49:54;;;;;;;;;;;-1.50;92.10;;;;;;5202156;28;19932;-46
2022/03/06 04:52:26;;;;;;;;;;;-0.60;92.70;;;;;;5200597;28;19930;-41
2022/03/06 04:54:58;;;;;;;;;;;-1.50;92.30;;;;;;5206989;28;19920;-42
2022/03/06 04:57:30;;;;;;;;;;;-0.90;92.20;;;;;;5204624;28;19929;-42
2022/03/06 05:00:04;;;;;;;;;;;-1.30;92.00;;;;;;5190751;28;19936;-47
2022/03/06 05:02:36;;;;;;;;;;;-1.40;93.20;;;;;;5195937;28;21085;-47
2022/03/06 05:05:09;;;;;;;;;;;-0.80;94.10;;;;;;5203964;28;19925;-43
2022/03/06 05:07:41;;;;;;;;;;;-1.70;93.60;;;;;;5198592;28;19924;-42
2022/03/06 05:10:13;;;;;;;;;;;-1.60;94.30;;;;;;5193218;28;19921;-47
2022/03/06 05:12:46;;;;;;;;;;;-1.10;94.70;;;;;;5177125;28;19929;-43
2022/03/06 05:15:18;;;;;;;;;;;-1.30;94.70;;;;;;5190188;28;20183;-47
2022/03/06 05:17:50;;;;;;;;;;;-1.70;93.70;;;;;;5187960;28;19920;-45
2022/03/06 05:20:22;;;;;;;;;;;-1.70;93.70;;;;;;5190047;28;19925;-49
2022/03/06 05:22:55;;;;;;;;;;;-1.40;93.60;;;;;;5204876;28;20572;-42
2022/03/06 05:25:27;;;;;;;;;;;-0.50;93.90;;;;;;5195316;28;19925;-43
2022/03/06 05:28:00;;;;;;;;;;;-1.50;93.90;;;;;;5195714;28;19920;-47
2022/03/06 05:30:32;;;;;;;;;;;-1.60;94.30;;;;;;5192121;28;19928;-45
2022/03/06 05:33:04;;;;;;;;;;;-1.80;93.90;;;;;;5195602;28;19947;-43
2022/03/06 05:35:36;;;;;;;;;;;-1.80;94.10;;;;;;5185308;28;19929;-46
2022/03/06 05:38:09;;;;;;;;;;;-1.20;94.60;;;;;;5173258;28;19924;-42
2022/03/06 05:40:41;;;;;;;;;;;-1.10;94.50;;;;;;5172567;28;20416;-44
2022/03/06 05:43:14;;;;;;;;;;;-1.20;95.60;;;;;;5175173;28;19925;-40
2022/03/06 05:45:50;;;;;;;;;;;-1.10;95.40;;;;;;5168282;28;19966;-43
2022/03/06 05:48:22;;;;;;;;;;;-1.90;95.10;;;;;;5174114;28;19925;-50
2022/03/06 05:50:54;;;;;;;;;;;-1.50;94.90;;;;;;5169509;28;19924;-40
2022/03/06 05:53:27;;;;;;;;;;;-1.80;95.00;;;;;;5167319;28;19940;-43
2022/03/06 05:55:59;;;;;;;;;;;-1.70;95.80;;;;;;5174627;28;19928;-47
2022/03/06 05:58:31;;;;;;;;;;;-1.90;95.50;;;;;;5177121;28;19947;-51
2022/03/06 06:01:03;;;;;;;;;;;-2.10;96.00;;;;;;5168797;28;19928;-47
2022/03/06 06:03:36;;;;;;;;;;;-1.40;95.00;;;;;;5172635;28;19935;-44
2022/03/06 06:06:08;;;;;;;;;;;-1.50;94.30;;;;;;5174932;28;20495;-40
2022/03/06 06:08:40;;;;;;;;;;;-1.60;94.90;;;;;;5169021;28;19929;-41
2022/03/06 06:11:12;;;;;;;;;;;-1.50;94.70;;;;;;5164472;28;19928;-49
2022/03/06 06:13:45;;;;;;;;;;;-1.80;94.10;;;;;;5170067;28;19971;-47
2022/03/06 06:16:18;;;;;;;;;;;-1.40;95.30;;;;;;5171101;28;20585;-47
2022/03/06 06:18:50;;;;;;;;;;;-2.00;94.90;;;;;;5171653;28;20534;-42
2022/03/06 06:21:22;;;;;;;;;;;-0.90;95.30;;;;;;5159609;28;19931;-42
2022/03/06 06:23:54;;;;;;;;;;;-1.00;95.50;;;;;;5171138;28;19932;-43
2022/03/06 06:26:26;;;;;;;;;;;-2.20;95.00;;;;;;5177913;28;20231;-46
2022/03/06 06:29:00;;;;;;;;;;;-1.80;95.80;;;;;;5175574;28;19925;-42
2022/03/06 06:31:32;;;;;;;;;;;-1.10;96.90;;;;;;5167827;28;19936;-45
2022/03/06 06:34:05;;;;;;;;;;;-2.60;96.10;;;;;;5171863;28;21097;-39
2022/03/06 06:36:37;;;;;;;;;;;-1.90;96.40;;;;;;5172717;28;19940;-41
2022/03/06 06:39:12;;;;;;;;;;;-2.00;96.60;;;;;;5171290;28;19955;-51
2022/03/06 06:41:44;;;;;;;;;;;-1.70;96.00;;;;;;5173912;28;19935;-39
2022/03/06 06:44:16;;;;;;;;;;;-1.10;96.80;;;;;;5180295;28;20431;-46
2022/03/06 06:46:50;;;;;;;;;;;-1.70;95.40;;;;;;5167109;28;19932;-49
2022/03/06 06:49:22;;;;;;;;;;;-1.20;96.20;;;;;;5173777;28;19924;-50
2022/03/06 06:51:54;;;;;;;;;;;-0.90;95.40;;;;;;5169708;28;19936;-53
2022/03/06 06:54:27;;;;;;;;;;;-1.90;96.10;;;;;;5172602;28;19932;-46
2022/03/06 06:57:00;;;;;;;;;;;-1.80;95.60;;;;;;5177351;28;19924;-39
2022/03/06 06:59:32;;;;;;;;;;;-1.90;97.30;;;;;;5179830;28;19928;-48
2022/03/06 07:02:05;;;;;;;;;;;-0.60;96.20;;;;;;5219803;23;19927;-85
2022/03/06 07:04:37;;;;;;;;;;;-1.10;96.10;;;;;;5203250;28;20340;-85
2022/03/06 07:07:10;;;;;;;;;;;-2.50;95.80;;;;;;5213933;28;19921;-86
2022/03/06 07:09:42;;;;;;;;;;;-0.70;97.40;;;;;;5230603;28;20292;-86
2022/03/06 07:12:14;;;;;;;;;;;-2.10;96.60;;;;;;5214671;28;19921;-85
2022/03/06 07:14:47;;;;;;;;;;;-0.50;97.40;;;;;;5214083;28;19943;-85
2022/03/06 07:17:19;;;;;;;;;;;-0.70;97.50;;;;;;5230075;28;19928;-86
2022/03/06 07:19:51;;;;;;;;;;;-0.40;97.20;;;;;;5213376;28;20407;-86
2022/03/06 07:22:24;;;;;;;;;;;-0.30;97.10;;;;;;5230393;28;19928;-85
2022/03/06 07:24:56;;;;;;;;;;;-1.50;96.80;;;;;;5212502;28;19921;-86
2022/03/06 07:27:29;;;;;;;;;;;-1.50;97.40;;;;;;5196376;28;19921;-86
2022/03/06 07:30:01;;;;;;;;;;;-0.20;96.80;;;;;;5196967;28;20264;-86
2022/03/06 07:32:39;;;;;;;;;;;-0.30;97.50;;;;;;5196470;28;19944;-86
2022/03/06 07:35:12;;;;;;;;;;;-0.20;97.20;;;;;;5212874;28;19925;-87
2022/03/06 07:37:45;;;;;;;;;;;-0.20;97.70;;;;;;5212415;28;20274;-86
2022/03/06 07:40:18;;;;;;;;;;;-1.70;97.10;;;;;;5189848;28;19921;-86
2022/03/06 07:42:50;;;;;;;;;;;-0.60;97.60;;;;;;5217085;28;19925;-86
2022/03/06 07:45:23;;;;;;;;;;;-1.10;97.60;;;;;;5213137;28;19932;-85
2022/03/06 07:47:55;;;;;;;;;;;-1.20;97.30;;;;;;5212438;28;19920;-86
2022/03/06 07:50:28;;;;;;;;;;;-0.60;97.40;;;;;;5197587;28;19920;-86
2022/03/06 07:53:00;;;;;;;;;;;-1.30;97.30;;;;;;5213509;28;20293;-85
2022/03/06 07:55:33;;;;;;;;;;;-0.80;97.00;;;;;;5212979;28;19928;-86
2022/03/06 07:58:05;;;;;;;;;;;-0.70;97.10;;;;;;5201106;28;20364;-86
2022/03/06 08:00:37;;;;;;;;;;;-0.90;96.60;;;;;;5207163;28;19921;-87
2022/03/06 08:03:10;;;;;;;;;;;0.20;96.20;;;;;;5180324;28;19917;-88
2022/03/06 08:05:43;;;;;;;;;;;-0.10;95.80;;;;;;5196423;28;19921;-86
2022/03/06 08:08:16;;;;;;;;;;;0.00;95.40;;;;;;5213011;28;19920;-87
2022/03/06 08:10:48;;;;;;;;;;;-0.20;95.40;;;;;;5195576;28;19927;-87
2022/03/06 08:13:20;;;;;;;;;;;-0.20;95.90;;;;;;5195745;28;20403;-87
2022/03/06 08:15:53;;;;;;;;;;;-0.30;95.40;;;;;;5196691;28;19928;-85
2022/03/06 08:18:25;;;;;;;;;;;0.50;95.40;;;;;;5208957;28;19932;-86
2022/03/06 08:20:58;;;;;;;;;;;-0.30;93.60;;;;;;5197503;28;19927;-86
2022/03/06 08:23:33;;;;;;;;;;;-0.10;93.30;;;;;;5190385;28;19920;-87
2022/03/06 08:26:05;;;;;;;;;;;-0.10;93.20;;;;;;5201218;28;19921;-88
2022/03/06 08:28:39;;;;;;;;;;;0.40;92.90;;;;;;5212842;28;20396;-87
2022/03/06 08:31:14;;;;;;;;;;;0.10;92.70;;;;;;5187103;28;19921;-88
2022/03/06 08:33:47;;;;;;;;;;;-0.10;92.10;;;;;;5195719;28;19928;-87
2022/03/06 08:36:22;;;;;;;;;;;-0.20;91.80;;;;;;5196990;28;19931;-88
2022/03/06 08:38:55;;;;;;;;;;;1.20;91.50;;;;;;5191202;28;19932;-87
2022/03/06 08:41:27;;;;;;;;;;;0.10;91.30;;;;;;5209286;28;19928;-86
2022/03/06 08:44:00;;;;;;;;;;;-0.90;90.40;;;;;;5159545;28;19921;-87
2022/03/06 08:46:33;;;;;;;;;;;0.60;90.60;;;;;;5175226;28;19921;-88
2022/03/06 08:49:05;;;;;;;;;;;-0.20;88.80;;;;;;5176360;28;20369;-87
2022/03/06 08:51:38;;;;;;;;;;;1.40;90.40;;;;;;5195201;28;19943;-85
2022/03/06 08:54:11;;;;;;;;;;;-0.60;88.70;;;;;;5196137;28;20373;-86
2022/03/06 08:56:44;;;;;;;;;;;-0.40;87.20;;;;;;5195978;28;19920;-87
2022/03/06 08:59:19;;;;;;;;;;;0.80;84.20;;;;;;5213799;28;20496;-85
2022/03/06 09:01:55;;;;;;;;;;;1.20;83.30;;;;;;5188539;28;20323;-86
2022/03/06 09:04:29;;;;;;;;;;;0.90;82.50;;;;;;5196287;28;19928;-86
2022/03/06 09:07:01;;;;;;;;;;;0.00;82.20;;;;;;5211442;28;19921;-86
2022/03/06 09:09:34;;;;;;;;;;;1.70;80.30;;;;;;5178859;28;19928;-87
2022/03/06 09:12:07;;;;;;;;;;;0.00;78.30;;;;;;5182541;28;19928;-87
2022/03/06 09:14:39;;;;;;;;;;;2.00;78.70;;;;;;5174689;28;19928;-87
2022/03/06 09:17:12;;;;;;;;;;;1.90;76.10;;;;;;5179319;28;19928;-87
2022/03/06 09:19:45;;;;;;;;;;;1.10;75.90;;;;;;5195344;28;19920;-88
2022/03/06 09:22:21;;;;;;;;;;;0.50;74.90;;;;;;5211161;28;19920;-87
2022/03/06 09:24:54;;;;;;;;;;;1.00;75.50;;;;;;5176571;28;19929;-90
2022/03/06 09:27:27;;;;;;;;;;;0.70;75.30;;;;;;5228424;28;20561;-88
2022/03/06 09:29:59;;;;;;;;;;;1.70;74.40;;;;;;5194689;28;19920;-89
2022/03/06 09:32:32;;;;;;;;;;;2.00;74.10;;;;;;5182983;28;19916;-88
2022/03/06 09:35:05;;;;;;;;;;;0.80;73.40;;;;;;5182721;28;19920;-88
2022/03/06 09:37:38;;;;;;;;;;;2.00;73.40;;;;;;5194798;28;19921;-88
2022/03/06 09:40:11;;;;;;;;;;;1.60;71.60;;;;;;5195659;28;19928;-88
2022/03/06 09:42:44;;;;;;;;;;;2.80;72.40;;;;;;5190870;28;19944;-87
2022/03/06 09:45:16;;;;;;;;;;;1.30;71.20;;;;;;5189926;28;19921;-88
2022/03/06 09:47:49;;;;;;;;;;;2.70;71.10;;;;;;5194750;28;19928;-88
2022/03/06 09:50:22;;;;;;;;;;;1.80;70.00;;;;;;5178574;28;19920;-87
2022/03/06 09:52:54;;;;;;;;;;;2.60;71.50;;;;;;5195047;28;19928;-88
2022/03/06 09:55:28;;;;;;;;;;;1.00;70.20;;;;;;5198272;28;19927;-87
2022/03/06 09:58:01;;;;;;;;;;;2.30;69.00;;;;;;5173705;28;19948;-89
2022/03/06 10:00:38;;;;;;;;;;;1.90;68.00;;;;;;5175175;28;20316;-88
2022/03/06 10:03:16;;;;;;;;;;;2.70;69.10;;;;;;5175263;28;20293;-89
2022/03/06 10:05:52;;;;;;;;;;;2.40;68.80;;;;;;5179335;28;19931;-88
2022/03/06 10:08:26;;;;;;;;;;;2.40;67.20;;;;;;5227708;28;19928;-89
2022/03/06 10:11:01;;;;;;;;;;;3.20;66.80;;;;;;5196213;28;19917;-86
2022/03/06 10:13:35;;;;;;;;;;;3.20;67.10;;;;;;5195803;28;19924;-87
2022/03/06 10:16:18;;;;;;;;;;;2.80;65.40;;;;;;5211561;28;19920;-88
2022/03/06 10:18:51;;;;;;;;;;;2.50;65.80;;;;;;5195297;28;19921;-88
2022/03/06 10:21:27;;;;;;;;;;;2.00;65.60;;;;;;5178433;28;19921;-88
2022/03/06 10:24:06;;;;;;;;;;;2.80;65.90;;;;;;5214555;28;19921;-87
2022/03/06 10:26:39;;;;;;;;;;;2.30;66.00;;;;;;5202373;28;19921;-89
2022/03/06 10:29:11;;;;;;;;;;;2.40;65.40;;;;;;5231175;28;19927;-88
2022/03/06 10:31:54;;;;;;;;;;;3.00;64.60;;;;;;5182836;28;19931;-87
2022/03/06 10:34:40;;;;;;;;;;;1.30;62.50;;;;;;5202071;28;19921;-88
2022/03/06 10:37:13;;;;;;;;;;;2.80;63.50;;;;;;5181787;28;19920;-89
2022/03/06 10:39:46;;;;;;;;;;;3.20;61.60;;;;;;5182331;28;19920;-89
2022/03/06 10:42:22;;;;;;;;;;;2.90;61.80;;;;;;5181863;28;19927;-87
2022/03/06 10:44:56;;;;;;;;;;;3.00;61.30;;;;;;5198695;28;19920;-88
2022/03/06 10:47:45;;;;;;;;;;;3.10;62.20;;;;;;5199689;28;19928;-87
2022/03/06 10:50:21;;;;;;;;;;;2.50;61.20;;;;;;5182628;28;20364;-88
2022/03/06 10:52:54;;;;;;;;;;;3.10;61.70;;;;;;5198516;28;19924;-87
2022/03/06 10:55:35;;;;;;;;;;;3.30;62.10;;;;;;5165119;28;19921;-86
2022/03/06 10:58:13;;;;;;;;;;;3.30;61.60;;;;;;5166964;28;19925;-87
2022/03/06 11:00:46;;;;;;;;;;;3.80;62.50;;;;;;5197497;28;19936;-89
2022/03/06 11:03:24;;;;;;;;;;;3.30;60.20;;;;;;5198470;28;20446;-88
2022/03/06 11:05:56;;;;;;;;;;;3.60;61.10;;;;;;5179723;23;19929;-86
2022/03/06 11:08:29;;;;;;;;;;;3.50;60.40;;;;;;5140490;28;19925;-86
2022/03/06 11:11:07;;;;;;;;;;;3.50;62.40;;;;;;5150410;28;19929;-85
2022/03/06 11:13:42;;;;;;;;;;;3.80;60.80;;;;;;5143420;28;20017;-87
2022/03/06 11:16:14;;;;;;;;;;;4.80;62.50;;;;;;5136336;28;19960;-86
2022/03/06 11:18:47;;;;;;;;;;;4.20;60.60;;;;;;5159505;28;19929;-88
2022/03/06 11:21:19;;;;;;;;;;;4.30;60.20;;;;;;5149178;28;19930;-85
2022/03/06 11:23:52;;;;;;;;;;;3.40;60.20;;;;;;5131460;28;19932;-87
2022/03/06 11:26:30;;;;;;;;;;;5.00;59.60;;;;;;5137564;28;19925;-86
2022/03/06 11:29:24;;;;;;;;;;;3.90;58.40;;;;;;5113353;28;20464;-87
2022/03/06 11:32:02;;;;;;;;;;;4.00;60.00;;;;;;5112352;28;20726;-86
2022/03/06 11:34:37;;;;;;;;;;;4.00;59.80;;;;;;5120383;28;19932;-87
2022/03/06 11:37:13;;;;;;;;;;;3.90;59.70;;;;;;5151806;28;20301;-87
2022/03/06 11:39:46;;;;;;;;;;;4.10;59.80;;;;;;5143865;28;19910;-86
2022/03/06 11:42:37;;;;;;;;;;;4.10;59.90;;;;;;5177205;28;19917;-85
2022/03/06 11:45:10;;;;;;;;;;;4.60;59.50;;;;;;5131374;28;19953;-87
2022/03/06 11:47:42;;;;;;;;;;;4.20;59.60;;;;;;5122815;28;19956;-83
2022/03/06 11:50:20;;;;;;;;;;;4.20;59.10;;;;;;5135511;28;19925;-86
2022/03/06 11:52:53;;;;;;;;;;;4.30;59.10;;;;;;5124180;28;19932;-86
2022/03/06 11:55:30;;;;;;;;;;;4.30;59.30;;;;;;5130317;28;20409;-85
2022/03/06 11:58:02;;;;;;;;;;;5.00;59.60;;;;;;5159804;28;20619;-85
2022/03/06 12:00:36;;;;;;;;;;;4.40;57.70;;;;;;5145030;28;19925;-84
2022/03/06 12:03:11;;;;;;;;;;;4.60;58.10;;;;;;5133786;28;19926;-86
2022/03/06 12:05:44;;;;;;;;;;;4.50;57.30;;;;;;5154398;28;19941;-83
2022/03/06 12:08:17;;;;;;;;;;;4.60;58.00;;;;;;5146860;28;19930;-85
2022/03/06 12:10:50;;;;;;;;;;;4.50;57.50;;;;;;5144274;28;19925;-86
2022/03/06 12:13:23;;;;;;;;;;;4.60;59.10;;;;;;5122063;28;19925;-84
2022/03/06 12:15:59;;;;;;;;;;;4.50;57.70;;;;;;5147709;28;19937;-86
2022/03/06 12:18:31;;;;;;;;;;;4.50;58.30;;;;;;5151596;28;19932;-85
2022/03/06 12:21:20;;;;;;;;;;;4.50;58.70;;;;;;5154039;28;19926;-85
2022/03/06 12:24:11;;;;;;;;;;;4.50;58.00;;;;;;5117795;28;19925;-84
2022/03/06 12:26:44;;;;;;;;;;;4.30;57.60;;;;;;5147778;28;19928;-85
2022/03/06 12:29:36;;;;;;;;;;;4.20;58.30;;;;;;5152082;28;20329;-85
2022/03/06 12:32:24;;;;;;;;;;;3.90;57.40;;;;;;5125246;28;21844;-83
2022/03/06 12:35:02;;;;;;;;;;;4.00;58.90;;;;;;5141548;28;19945;-86
2022/03/06 12:37:36;;;;;;;;;;;4.00;59.30;;;;;;5146886;28;19925;-84
2022/03/06 12:40:08;;;;;;;;;;;3.80;59.00;;;;;;5109896;28;20650;-87
2022/03/06 12:42:42;;;;;;;;;;;3.80;59.10;;;;;;5142361;28;19937;-86
2022/03/06 12:45:16;;;;;;;;;;;3.90;59.70;;;;;;5148160;28;19925;-85
2022/03/06 12:47:48;;;;;;;;;;;3.70;58.60;;;;;;5133974;28;21097;-85
2022/03/06 12:50:21;;;;;;;;;;;3.70;59.60;;;;;;5140451;28;20384;-83
2022/03/06 12:52:58;;;;;;;;;;;4.80;59.00;;;;;;5126079;28;19937;-86
2022/03/06 12:55:30;;;;;;;;;;;4.00;59.50;;;;;;5114469;28;20294;-86
2022/03/06 12:58:02;;;;;;;;;;;4.00;59.60;;;;;;5146386;28;20903;-86
2022/03/06 13:00:35;;;;;;;;;;;4.10;58.30;;;;;;5141196;28;19936;-85
2022/03/06 13:03:08;;;;;;;;;;;3.90;58.00;;;;;;5137893;28;20477;-84
2022/03/06 13:05:40;;;;;;;;;;;5.50;59.50;;;;;;5131270;28;19930;-86
2022/03/06 13:08:12;;;;;;;;;;;3.90;59.70;;;;;;5135863;28;19926;-84
2022/03/06 13:10:45;;;;;;;;;;;3.70;59.20;;;;;;5123001;28;19925;-86
2022/03/06 13:13:17;;;;;;;;;;;3.90;58.10;;;;;;5127311;28;19929;-82
2022/03/06 13:15:52;;;;;;;;;;;3.90;58.10;;;;;;5120037;28;19925;-89
2022/03/06 13:18:32;;;;;;;;;;;4.00;58.60;;;;;;5112055;28;20402;-84
2022/03/06 13:21:15;;;;;;;;;;;4.10;59.60;;;;;;5088200;28;19930;-85
2022/03/06 13:24:01;;;;;;;;;;;4.10;57.40;;;;;;5120358;28;19926;-85
2022/03/06 13:26:33;;;;;;;;;;;4.20;58.10;;;;;;5103491;28;19929;-83
2022/03/06 13:29:06;;;;;;;;;;;4.30;59.30;;;;;;5127802;28;19932;-84
2022/03/06 13:31:46;;;;;;;;;;;4.20;58.40;;;;;;5122937;28;19929;-84
2022/03/06 13:34:18;;;;;;;;;;;4.40;60.30;;;;;;5126738;28;19929;-84
2022/03/06 13:36:51;;;;;;;;;;;4.30;59.70;;;;;;5110498;28;19929;-86
2022/03/06 13:39:24;;;;;;;;;;;4.30;57.80;;;;;;5106678;28;20539;-85
2022/03/06 13:41:58;;;;;;;;;;;4.30;56.60;;;;;;5086451;28;20549;-86
2022/03/06 13:44:30;;;;;;;;;;;4.40;57.20;;;;;;5134847;28;20903;-85
2022/03/06 13:47:09;;;;;;;;;;;4.20;57.50;;;;;;5090219;28;19925;-84
2022/03/06 13:49:42;;;;;;;;;;;4.30;57.70;;;;;;5100487;28;19929;-85
2022/03/06 13:52:14;;;;;;;;;;;4.30;57.70;;;;;;5092842;28;20891;-85
2022/03/06 13:54:46;;;;;;;;;;;5.10;58.90;;;;;;5135079;28;19925;-84
2022/03/06 13:57:18;;;;;;;;;;;4.30;59.00;;;;;;5108019;28;19937;-84
2022/03/06 13:59:51;;;;;;;;;;;4.40;57.10;;;;;;5082346;28;20487;-84
2022/03/06 14:02:27;;;;;;;;;;;4.40;57.40;;;;;;5142164;28;19940;-86
2022/03/06 14:05:03;;;;;;;;;;;4.40;58.40;;;;;;5139497;28;19925;-88
2022/03/06 14:07:35;;;;;;;;;;;4.60;56.20;;;;;;5151586;28;20506;-86
2022/03/06 14:10:08;;;;;;;;;;;4.50;56.80;;;;;;5153228;28;20298;-85
2022/03/06 14:12:45;;;;;;;;;;;4.50;57.50;;;;;;5151973;28;19940;-86
2022/03/06 14:15:22;;;;;;;;;;;4.50;58.70;;;;;;5113293;28;19937;-86
2022/03/06 14:17:54;;;;;;;;;;;4.60;56.90;;;;;;5141308;28;19926;-86
2022/03/06 14:20:26;;;;;;;;;;;4.60;56.70;;;;;;5143594;28;20860;-86
2022/03/06 14:23:14;;;;;;;;;;;4.70;57.90;;;;;;5144579;28;19930;-87
2022/03/06 14:25:46;;;;;;;;;;;4.70;56.50;;;;;;5121982;28;19936;-86
2022/03/06 14:28:18;;;;;;;;;;;4.60;56.50;;;;;;5150063;28;19930;-86
2022/03/06 14:30:51;;;;;;;;;;;4.60;57.10;;;;;;5146706;28;19926;-86
2022/03/06 14:33:24;;;;;;;;;;;4.50;57.20;;;;;;5129791;28;19948;-87
2022/03/06 14:36:00;;;;;;;;;;;4.60;56.10;;;;;;5126959;28;20507;-85
2022/03/06 14:38:32;;;;;;;;;;;4.50;56.30;;;;;;5145785;28;19925;-86
2022/03/06 14:41:08;;;;;;;;;;;4.50;57.60;;;;;;5141267;28;19937;-85
2022/03/06 14:43:40;;;;;;;;;;;3.50;57.00;;;;;;5085426;28;20441;-86
2022/03/06 14:46:17;;;;;;;;;;;4.70;57.60;;;;;;5140201;28;20025;-83
2022/03/06 14:48:51;;;;;;;;;;;4.60;57.60;;;;;;5136754;28;19930;-86
2022/03/06 14:51:23;;;;;;;;;;;4.70;56.40;;;;;;5109200;28;23417;-84
2022/03/06 14:53:56;;;;;;;;;;;4.70;57.10;;;;;;5137053;28;19933;-85
2022/03/06 14:56:29;;;;;;;;;;;4.60;57.60;;;;;;5090832;28;19933;-84
2022/03/06 14:59:03;;;;;;;;;;;4.60;57.20;;;;;;5096618;28;19952;-86
2022/03/06 15:01:35;;;;;;;;;;;4.50;56.90;;;;;;5079496;28;19936;-84
2022/03/06 15:04:07;;;;;;;;;;;4.50;58.20;;;;;;5133542;28;19937;-85